createdAt,value
2023-02-06T00:04:27.971Z,1.60
2023-02-06T00:10:29.792Z,1.70
2023-02-06T00:16:33.441Z,1.70
2023-02-06T00:22:35.477Z,1.80
2023-02-06T00:28:37.726Z,1.80
2023-02-06T00:34:39.467Z,1.90
2023-02-06T00:40:41.323Z,1.80
2023-02-06T00:46:43.168Z,1.80
2023-02-06T00:52:45.497Z,1.80
2023-02-06T00:58:47.525Z,1.70
2023-02-06T01:04:49.319Z,1.70
2023-02-06T01:10:51.252Z,1.70
2023-02-06T01:16:53.161Z,1.70
2023-02-06T01:22:54.921Z,1.60
2023-02-06T01:28:57.156Z,1.60
2023-02-06T01:34:58.927Z,1.50
2023-02-06T01:41:01.680Z,1.50
2023-02-06T01:47:03.466Z,1.50
2023-02-06T01:53:07.259Z,1.30
2023-02-06T01:59:09.475Z,1.20
2023-02-06T02:05:12.736Z,1.10
2023-02-06T02:11:19.127Z,1.10
2023-02-06T02:18:03.285Z,1.00
2023-02-06T02:24:08.990Z,0.90
2023-02-06T02:30:10.764Z,0.80
2023-02-06T02:36:19.519Z,0.80
2023-02-06T02:42:27.147Z,0.70
2023-02-06T02:48:34.394Z,0.70
2023-02-06T02:54:36.253Z,0.70
2023-02-06T03:01:05.035Z,0.70
2023-02-06T03:07:28.321Z,0.60
2023-02-06T03:13:38.329Z,0.60
2023-02-06T03:19:48.526Z,0.40
2023-02-06T03:25:55.639Z,0.40
2023-02-06T03:32:07.653Z,0.50
2023-02-06T03:38:10.003Z,0.50
2023-02-06T03:44:18.730Z,0.50
2023-02-06T03:50:22.664Z,0.30
2023-02-06T03:56:35.587Z,0.20
2023-02-06T04:02:39.261Z,0.00
2023-02-06T04:08:41.079Z,0.00
2023-02-06T04:14:43.335Z,0.10
2023-02-06T04:20:45.118Z,0.30
2023-02-06T04:26:46.931Z,0.30
2023-02-06T04:32:48.685Z,0.20
2023-02-06T04:38:51.970Z,0.10
2023-02-06T04:44:53.712Z,0.20
2023-02-06T04:50:55.631Z,0.20
2023-02-06T04:56:57.444Z,0.10
2023-02-06T05:02:59.174Z,0.10
2023-02-06T05:09:02.446Z,0.10
2023-02-06T05:15:05.125Z,0.00
2023-02-06T05:21:07.138Z,0.10
2023-02-06T05:27:08.954Z,0.10
2023-02-06T05:33:10.981Z,0.10
2023-02-06T05:39:12.957Z,0.10
2023-02-06T05:45:14.757Z,0.10
2023-02-06T05:51:17.020Z,0.10
2023-02-06T05:57:19.062Z,0.10
2023-02-06T06:03:21.034Z,-0.10
2023-02-06T06:09:22.979Z,-0.10
2023-02-06T06:15:24.816Z,-0.10
2023-02-06T06:21:26.627Z,0.00
2023-02-06T06:27:28.489Z,0.00
2023-02-06T06:33:30.404Z,0.10
2023-02-06T06:39:32.465Z,0.20
2023-02-06T06:45:34.956Z,0.20
2023-02-06T06:51:37.142Z,0.30
2023-02-06T06:57:39.012Z,0.40
2023-02-06T07:03:44.223Z,0.40
2023-02-06T07:09:46.088Z,0.40
2023-02-06T07:15:47.925Z,0.40
2023-02-06T07:21:49.824Z,0.50
2023-02-06T07:27:51.702Z,0.50
2023-02-06T07:33:53.699Z,0.60
2023-02-06T07:39:55.627Z,0.60
2023-02-06T07:46:02.511Z,0.70
2023-02-06T07:52:04.536Z,0.70
2023-02-06T07:58:06.589Z,0.60
2023-02-06T08:04:08.538Z,0.80
2023-02-06T08:10:10.553Z,0.80
2023-02-06T08:16:14.817Z,0.90
2023-02-06T08:22:16.616Z,1.00
2023-02-06T08:28:18.658Z,1.00
2023-02-06T08:34:20.761Z,1.20
2023-02-06T08:40:22.676Z,1.40
2023-02-06T08:46:28.365Z,1.50
2023-02-06T08:52:30.231Z,1.60
2023-02-06T08:58:33.259Z,1.80
2023-02-06T09:04:37.537Z,1.90
2023-02-06T09:10:39.338Z,1.90
2023-02-06T09:16:41.367Z,2.00
2023-02-06T09:22:44.970Z,2.20
2023-02-06T09:28:47.563Z,2.40
2023-02-06T09:34:49.701Z,2.40
2023-02-06T09:40:54.628Z,2.40
2023-02-06T09:47:18.882Z,2.30
2023-02-06T09:53:26.365Z,2.10
2023-02-06T09:59:37.791Z,2.30
2023-02-06T10:05:58.552Z,2.30
2023-02-06T10:12:07.342Z,2.40
2023-02-06T10:18:42.148Z,2.40
2023-02-06T10:25:04.452Z,2.40
2023-02-06T10:31:18.629Z,2.60
2023-02-06T10:37:48.536Z,2.60
2023-02-06T10:43:56.555Z,2.60
2023-02-06T10:50:26.844Z,2.60
2023-02-06T10:56:36.152Z,2.80
2023-02-06T11:03:08.111Z,2.80
2023-02-06T11:09:11.128Z,2.90
2023-02-06T11:15:23.011Z,2.90
2023-02-06T11:21:46.255Z,2.90
2023-02-06T11:27:49.133Z,3.00
2023-02-06T11:33:54.318Z,3.20
2023-02-06T11:40:24.829Z,3.20
2023-02-06T11:46:32.996Z,3.30
2023-02-06T11:52:35.032Z,3.30
2023-02-06T11:58:37.013Z,3.30
2023-02-06T12:04:40.714Z,3.60
2023-02-06T12:11:08.435Z,3.50
2023-02-06T12:17:32.581Z,3.70
2023-02-06T12:24:05.718Z,3.80
2023-02-06T12:30:30.533Z,3.90
2023-02-06T12:36:37.683Z,3.80
2023-02-06T12:42:43.554Z,3.80
2023-02-06T12:49:03.879Z,3.90
2023-02-06T12:55:16.580Z,3.90
2023-02-06T13:01:34.376Z,3.80
2023-02-06T13:07:49.025Z,3.90
2023-02-06T13:14:00.886Z,3.80
2023-02-06T13:20:14.227Z,3.90
2023-02-06T13:26:16.659Z,4.00
2023-02-06T13:32:18.740Z,4.00
2023-02-06T13:38:23.375Z,4.00
2023-02-06T13:44:30.716Z,3.90
2023-02-06T13:50:48.500Z,3.90
2023-02-06T13:57:15.855Z,3.90
2023-02-06T14:03:29.540Z,3.80
2023-02-06T14:09:59.099Z,3.70
2023-02-06T14:16:29.703Z,3.80
2023-02-06T14:22:34.432Z,3.80
2023-02-06T14:28:55.003Z,3.70
2023-02-06T14:35:11.795Z,3.60
2023-02-06T14:41:16.043Z,3.60
2023-02-06T14:47:23.690Z,3.60
2023-02-06T14:53:32.569Z,3.60
2023-02-06T14:59:34.453Z,3.60
2023-02-06T15:05:36.707Z,3.70
2023-02-06T15:11:38.966Z,3.70
2023-02-06T15:17:41.290Z,3.80
2023-02-06T15:23:48.686Z,4.10
2023-02-06T15:29:51.059Z,4.20
2023-02-06T15:35:55.269Z,4.40
2023-02-06T15:41:57.194Z,4.50
2023-02-06T15:48:01.832Z,4.30
2023-02-06T15:54:24.177Z,4.10
2023-02-06T16:00:31.180Z,3.90
2023-02-06T16:06:33.309Z,3.70
2023-02-06T16:12:37.656Z,3.60
2023-02-06T16:18:40.719Z,3.40
2023-02-06T16:24:43.044Z,3.30
2023-02-06T16:30:58.519Z,3.20
2023-02-06T16:37:01.110Z,3.00
2023-02-06T16:43:03.032Z,2.80
2023-02-06T16:49:13.175Z,2.60
2023-02-06T16:55:22.903Z,2.40
2023-02-06T17:01:28.688Z,2.30
2023-02-06T17:07:32.451Z,2.20
2023-02-06T17:13:34.383Z,2.00
2023-02-06T17:19:36.650Z,1.90
2023-02-06T17:25:40.568Z,1.80
2023-02-06T17:31:42.553Z,1.70
2023-02-06T17:37:44.559Z,1.60
2023-02-06T17:43:46.426Z,1.50
2023-02-06T17:49:48.584Z,1.40
2023-02-06T17:55:50.392Z,1.40
2023-02-06T18:01:53.460Z,1.30
2023-02-06T18:07:55.513Z,1.30
2023-02-06T18:13:57.786Z,1.30
2023-02-06T18:20:00.065Z,1.30
2023-02-06T18:26:03.981Z,1.30
2023-02-06T18:32:05.890Z,1.10
2023-02-06T18:38:09.886Z,1.00
2023-02-06T18:44:12.184Z,0.90
2023-02-06T18:50:14.135Z,0.80
2023-02-06T18:56:16.418Z,0.80
2023-02-06T19:02:18.415Z,0.60
2023-02-06T19:08:20.247Z,0.60
2023-02-06T19:14:25.440Z,0.50
2023-02-06T19:20:27.364Z,0.50
2023-02-06T19:26:29.749Z,0.50
2023-02-06T19:32:33.093Z,0.30
2023-02-06T19:38:35.074Z,0.30
2023-02-06T19:44:37.446Z,0.20
2023-02-06T19:50:40.665Z,0.20
2023-02-06T19:56:44.672Z,0.10
2023-02-06T20:02:46.499Z,0.10
2023-02-06T20:08:48.844Z,0.00
2023-02-06T20:14:50.652Z,0.00
2023-02-06T20:20:52.424Z,-0.20
2023-02-06T20:26:57.355Z,-0.40
2023-02-06T20:32:59.370Z,-0.40
2023-02-06T20:39:02.325Z,-0.40
2023-02-06T20:45:04.266Z,-0.40
2023-02-06T20:51:06.246Z,-0.40
2023-02-06T20:57:08.093Z,-0.60
2023-02-06T21:03:09.901Z,-0.70
2023-02-06T21:09:12.046Z,-0.70
2023-02-06T21:15:13.980Z,-0.80
2023-02-06T21:21:15.855Z,-0.70
2023-02-06T21:27:17.619Z,-0.70
2023-02-06T21:33:19.437Z,-0.60
2023-02-06T21:39:25.139Z,-0.60
2023-02-06T21:45:26.977Z,-0.70
2023-02-06T21:51:28.949Z,-0.80
2023-02-06T21:57:31.520Z,-0.80
2023-02-06T22:03:34.421Z,-0.90
2023-02-06T22:09:36.263Z,-1.10
2023-02-06T22:15:38.268Z,-1.00
2023-02-06T22:21:40.611Z,-1.10
2023-02-06T22:27:43.485Z,-1.30
2023-02-06T22:33:46.012Z,-1.40
2023-02-06T22:39:47.777Z,-1.30
2023-02-06T22:45:49.862Z,-1.20
2023-02-06T22:51:51.801Z,-1.20
2023-02-06T22:57:53.532Z,-1.20
2023-02-06T23:03:55.804Z,-1.30
2023-02-06T23:09:57.671Z,-1.40
2023-02-06T23:15:59.703Z,-1.50
2023-02-06T23:22:01.594Z,-1.60
2023-02-06T23:28:03.567Z,-1.50
2023-02-06T23:34:05.527Z,-1.70
2023-02-06T23:40:08.467Z,-1.50
2023-02-06T23:46:12.324Z,-1.60
2023-02-06T23:52:14.419Z,-1.60
2023-02-06T23:58:16.292Z,-1.80
